Terminal Aerodrome Forecast
Issued by NWS Charleston, WV

Home | Current Version | Previous Version | Text Only | Print | Product List | Glossary On
Versions: 1 2 3 4 5 6 7 8 9 10 11 12 13 14 15 16 17 18 19 20 21 22 23 24 25 26 27 28 29 30 31 32 33
000
FTUS41 KRLX 300500
TAFCRW
TAF
KCRW 300530Z 3006/3106 00000KT 6SM BR FEW015
     FM300800 00000KT 2SM BR FEW015
     FM301000 00000KT 1/4SM FG FEW015
     FM301200 00000KT 2SM BR SCT050
     FM301500 25004KT P6SM SCT090
     FM310200 00000KT P6SM SCT060=

USA.gov is the U.S. government's official web portal to all federal, state and local government web resources and services.